Airfield :
LOGIN :

Register | Disclaimer

   EN    FR    IT 

 










Legend :    VFR   Marginal VFR   IFR   Intensive IFR   Very Intensive IFR
Visi :
Ceiling :
>= 8 km
>= 3000ft
5 to 8 km
1000 to 3000 ft
1500m to 5 km
500 to 1000 ft
800 to 1500m
200 to 500 ft
< 800m
< 200 ft
Symbols :   Thunderstorms  Fog  Heavy snow  Heavy precipitations  Wind > 20 kt
SIGMETs :     Misc.  Thunderstorms  Icing  Turbulence  Mountain Waves  Volcanic Ashes







- Airport Elevation : 1213 ft
- IATA code : SCQ


LEST - Santiago de Compostela

CURRENT METAR :
  • 241544Z VRB08KT 9999 VCTS SHRA FEW012 SCT030CB 19/13 Q1014 TEMPO 3000 TSRA BKN025CB

EXPIRED METARs :
  • 241530Z 23007KT 180V290 9999 FEW012 SCT030CB 20/12 Q1014 TEMPO TSRA BKN025CB
  • 241500Z 02008KT 350V050 9999 FEW012 FEW025TCU 22/16 Q1013 TEMPO TSRA BKN025CB
  • 241400Z 05005KT 010V110 9999 VCTS FEW012 FEW025CB 24/12 Q1013 TEMPO SHRA SCT030CB
  • 241330Z 05005KT 330V120 9999 FEW012 FEW025TCU 24/12 Q1013 TEMPO TSRA BKN025CB
  • 241300Z VRB04KT 9999 FEW015 25/11 Q1014 TEMPO SCT030TCU

TAF TAF LEST
Valid from the 24 at 12:00 until the 25 at 12:00 UTC


241100Z 2412/2512 06008KT 9999 FEW030 SCT045 TX26/2414Z TN13/2504Z
TEMPO 2413/2512 SHRA SCT025TCU
PROB40
TEMPO 2413/2418 3000 TSRA SCT025CB
PROB40
TEMPO 2503/2512 3000 RA SHRA BKN010 SCT025TCU
No reported NOTAMs for that airfield.
1 SIGMET reported for the Madrid FIR (LECM) :
 
Embedded thunderstorms
LECM SIGMET 12 VALID 241500/241800 LEVA
LECM MADRID FIR/UIR EMBD TS FCST WI N3740 W00710 - N3740 W00320 - N4120 W00150 - N4320 W00210 - N4320 W00810 - N42 W00910 - N4150 W00610 - N3740 W00710 TOP FL340 MOV N 15KT NC=



MET'MAP, your aeronautical weather chart ! - Copyright ORBIFLY December 2007 - Disclaimer

ORBIFLY MET'MAP TEAM :

Programming & Development : Alexandra Zaïnal
Concept & Development : Baudouin d'Aumeries
Co-Development & Prog : Marc-Olivier Méhu
Technical & hardware support : Manuel Goepfert

Contact : metmap@orbifly.com




SOURCES & CREDITS :

   NOAA